createdAt,value
2018-12-15T00:00:46.646Z,1.40
2018-12-15T00:03:15.746Z,1.40
2018-12-15T00:05:44.123Z,1.30
2018-12-15T00:08:12.191Z,1.20
2018-12-15T00:10:40.274Z,1.30
2018-12-15T00:13:08.357Z,1.20
2018-12-15T00:15:36.432Z,1.30
2018-12-15T00:18:04.608Z,1.40
2018-12-15T00:20:32.709Z,1.30
2018-12-15T00:23:00.808Z,1.40
2018-12-15T00:25:28.900Z,1.40
2018-12-15T00:27:57.007Z,1.30
2018-12-15T00:30:25.160Z,1.30
2018-12-15T00:32:53.251Z,1.30
2018-12-15T00:35:21.423Z,1.30
2018-12-15T00:37:49.589Z,1.30
2018-12-15T00:40:17.719Z,1.30
2018-12-15T00:42:45.830Z,1.30
2018-12-15T00:45:14.003Z,1.30
2018-12-15T00:47:42.075Z,1.20
2018-12-15T00:50:10.163Z,1.20
2018-12-15T00:52:38.226Z,1.20
2018-12-15T00:55:06.318Z,1.20
2018-12-15T00:57:34.423Z,1.20
2018-12-15T01:00:02.478Z,1.30
2018-12-15T01:02:30.569Z,1.30
2018-12-15T01:04:58.686Z,1.30
2018-12-15T01:07:26.747Z,1.30
2018-12-15T01:09:54.830Z,1.20
2018-12-15T01:12:22.971Z,1.20
2018-12-15T01:14:51.075Z,1.20
2018-12-15T01:17:20.664Z,1.30
2018-12-15T01:19:48.965Z,1.20
2018-12-15T01:22:17.021Z,1.30
2018-12-15T01:24:45.187Z,1.30
2018-12-15T01:27:13.282Z,1.30
2018-12-15T01:29:41.483Z,1.20
2018-12-15T01:32:09.583Z,1.20
2018-12-15T01:34:37.654Z,1.20
2018-12-15T01:37:05.740Z,1.20
2018-12-15T01:39:33.914Z,1.30
2018-12-15T01:42:01.996Z,1.30
2018-12-15T01:44:30.182Z,1.20
2018-12-15T01:46:58.255Z,1.30
2018-12-15T01:49:26.330Z,1.30
2018-12-15T01:51:54.351Z,1.20
2018-12-15T01:54:22.547Z,1.20
2018-12-15T01:56:50.642Z,1.20
2018-12-15T01:59:18.726Z,1.30
2018-12-15T02:01:46.795Z,1.20
2018-12-15T02:04:14.910Z,1.20
2018-12-15T02:06:42.994Z,1.30
2018-12-15T02:09:11.126Z,1.40
2018-12-15T02:11:39.198Z,1.30
2018-12-15T02:14:07.272Z,1.20
2018-12-15T02:16:35.493Z,1.20
2018-12-15T02:19:03.563Z,1.20
2018-12-15T02:21:31.700Z,1.20
2018-12-15T02:23:59.870Z,1.30
2018-12-15T02:26:27.901Z,1.20
2018-12-15T02:28:55.979Z,1.20
2018-12-15T02:31:24.538Z,1.30
2018-12-15T02:33:52.642Z,1.20
2018-12-15T02:36:20.872Z,1.20
2018-12-15T02:38:49.031Z,1.10
2018-12-15T02:41:17.153Z,1.10
2018-12-15T02:43:45.276Z,1.10
2018-12-15T02:46:13.408Z,1.10
2018-12-15T02:48:41.567Z,1.20
2018-12-15T02:51:09.629Z,1.20
2018-12-15T02:53:37.716Z,1.20
2018-12-15T02:56:05.810Z,1.10
2018-12-15T02:58:33.882Z,1.10
2018-12-15T03:03:36.575Z,1.20
2018-12-15T03:06:04.718Z,1.20
2018-12-15T03:08:32.754Z,1.20
2018-12-15T03:11:00.923Z,1.20
2018-12-15T03:13:28.990Z,1.20
2018-12-15T03:15:57.094Z,1.20
2018-12-15T03:18:25.255Z,1.10
2018-12-15T03:21:01.183Z,1.10
2018-12-15T03:23:29.246Z,1.10
2018-12-15T03:25:57.931Z,1.10
2018-12-15T03:28:26.005Z,1.10
2018-12-15T03:30:54.179Z,1.10
2018-12-15T03:33:22.357Z,1.20
2018-12-15T03:35:50.415Z,1.20
2018-12-15T03:38:18.493Z,1.20
2018-12-15T03:40:46.662Z,1.30
2018-12-15T03:43:15.721Z,1.20
2018-12-15T03:45:43.906Z,1.30
2018-12-15T03:48:12.044Z,1.30
2018-12-15T03:50:40.181Z,1.30
2018-12-15T03:53:08.346Z,1.30
2018-12-15T03:55:36.489Z,1.20
2018-12-15T03:58:04.562Z,1.20
2018-12-15T04:00:32.611Z,1.20
2018-12-15T04:03:00.687Z,1.10
2018-12-15T04:05:28.754Z,1.20
2018-12-15T04:07:56.841Z,1.20
2018-12-15T04:10:25.014Z,1.20
2018-12-15T04:12:53.131Z,1.10
2018-12-15T04:15:21.250Z,1.20
2018-12-15T04:17:49.354Z,1.20
2018-12-15T04:20:17.415Z,1.20
2018-12-15T04:22:45.517Z,1.10
2018-12-15T04:25:13.554Z,1.10
2018-12-15T04:27:41.626Z,1.20
2018-12-15T04:30:09.983Z,1.20
2018-12-15T04:32:44.933Z,1.20
2018-12-15T04:35:08.127Z,1.20
2018-12-15T04:37:36.272Z,1.20
2018-12-15T04:40:05.162Z,1.20
2018-12-15T04:42:33.184Z,1.30
2018-12-15T04:45:01.240Z,1.40
2018-12-15T04:47:29.588Z,1.40
2018-12-15T04:49:57.670Z,1.40
2018-12-15T04:52:25.797Z,1.30
2018-12-15T04:54:53.841Z,1.30
2018-12-15T04:57:21.932Z,1.30
2018-12-15T04:59:50.051Z,1.40
2018-12-15T05:02:18.222Z,1.20
2018-12-15T05:04:46.284Z,1.20
2018-12-15T05:07:14.428Z,1.20
2018-12-15T05:09:42.554Z,1.30
2018-12-15T05:12:10.632Z,1.30
2018-12-15T05:14:39.559Z,1.30
2018-12-15T05:17:07.596Z,1.10
2018-12-15T05:19:35.872Z,1.20
2018-12-15T05:22:04.456Z,1.20
2018-12-15T05:24:32.523Z,1.30
2018-12-15T05:27:00.719Z,1.30
2018-12-15T05:29:28.753Z,1.30
2018-12-15T05:31:56.901Z,1.20
2018-12-15T05:34:24.946Z,1.20
2018-12-15T05:36:53.019Z,1.20
2018-12-15T05:39:21.096Z,1.20
2018-12-15T05:41:49.113Z,1.20
2018-12-15T05:44:17.262Z,1.20
2018-12-15T05:46:45.355Z,1.20
2018-12-15T05:49:13.407Z,1.20
2018-12-15T05:51:41.466Z,1.20
2018-12-15T05:54:09.515Z,1.10
2018-12-15T05:56:37.572Z,1.20
2018-12-15T05:59:05.718Z,1.10
2018-12-15T06:01:33.854Z,1.20
2018-12-15T06:04:01.903Z,1.20
2018-12-15T06:06:29.978Z,1.10
2018-12-15T06:08:58.065Z,1.10
2018-12-15T06:11:26.203Z,1.10
2018-12-15T06:13:54.274Z,1.20
2018-12-15T06:16:22.356Z,1.10
2018-12-15T06:18:50.487Z,1.10
2018-12-15T06:21:18.536Z,1.20
2018-12-15T06:23:46.694Z,1.20
2018-12-15T06:26:15.430Z,1.10
2018-12-15T06:28:43.568Z,1.10
2018-12-15T06:31:11.679Z,1.10
2018-12-15T06:33:39.754Z,1.10
2018-12-15T06:36:07.797Z,1.10
2018-12-15T06:38:35.866Z,1.10
2018-12-15T06:41:03.957Z,1.10
2018-12-15T06:43:32.444Z,1.10
2018-12-15T06:46:00.912Z,1.10
2018-12-15T06:48:28.995Z,1.10
2018-12-15T06:50:57.121Z,1.10
2018-12-15T06:53:25.186Z,1.10
2018-12-15T06:55:53.294Z,1.00
2018-12-15T06:58:21.367Z,1.10
2018-12-15T07:00:49.481Z,1.10
2018-12-15T07:03:18.517Z,1.10
2018-12-15T07:05:46.754Z,1.10
2018-12-15T07:08:14.848Z,1.10
2018-12-15T07:10:42.886Z,1.20
2018-12-15T07:13:10.967Z,1.10
2018-12-15T07:15:39.015Z,1.10
2018-12-15T07:18:07.080Z,1.10
2018-12-15T07:20:35.262Z,1.10
2018-12-15T07:23:03.330Z,1.10
2018-12-15T07:25:32.346Z,1.10
2018-12-15T07:28:00.422Z,1.10
2018-12-15T07:30:28.698Z,1.00
2018-12-15T07:32:56.894Z,1.00
2018-12-15T07:35:24.959Z,1.00
2018-12-15T07:37:52.984Z,1.00
2018-12-15T07:40:21.012Z,1.10
2018-12-15T07:42:49.079Z,1.10
2018-12-15T07:48:01.514Z,1.10
2018-12-15T07:50:29.530Z,1.10
2018-12-15T07:52:57.622Z,1.10
2018-12-15T07:55:25.698Z,1.10
2018-12-15T07:57:53.818Z,1.10
2018-12-15T08:00:21.914Z,1.10
2018-12-15T08:02:50.025Z,1.10
2018-12-15T08:05:18.193Z,1.00
2018-12-15T08:07:50.466Z,1.00
2018-12-15T08:10:23.162Z,1.10
2018-12-15T08:12:59.942Z,1.00
2018-12-15T08:15:28.046Z,1.00
2018-12-15T08:17:56.107Z,1.00
2018-12-15T08:20:24.162Z,1.10
2018-12-15T08:22:52.299Z,1.00
2018-12-15T08:25:20.459Z,1.10
2018-12-15T08:27:48.518Z,1.00
2018-12-15T08:30:16.592Z,1.00
2018-12-15T08:32:45.588Z,1.10
2018-12-15T08:35:18.574Z,1.00
2018-12-15T08:37:46.887Z,1.10
2018-12-15T08:40:15.042Z,1.10
2018-12-15T08:42:43.701Z,1.10
2018-12-15T08:45:11.786Z,1.10
2018-12-15T08:47:40.469Z,1.10
2018-12-15T08:50:08.720Z,1.10
2018-12-15T08:52:36.765Z,1.10
2018-12-15T08:55:05.238Z,1.10
2018-12-15T08:57:33.294Z,1.10
2018-12-15T09:00:01.372Z,1.10
2018-12-15T09:02:29.441Z,1.10
2018-12-15T09:04:57.511Z,1.10
2018-12-15T09:07:25.665Z,1.10
2018-12-15T09:09:53.756Z,1.10
2018-12-15T09:12:21.830Z,1.10
2018-12-15T09:14:50.063Z,1.10
2018-12-15T09:17:18.155Z,1.20
2018-12-15T09:19:47.267Z,1.10
2018-12-15T09:22:15.403Z,1.10
2018-12-15T09:24:43.535Z,1.20
2018-12-15T09:27:11.633Z,1.20
2018-12-15T09:29:39.842Z,1.20
2018-12-15T09:32:07.935Z,1.30
2018-12-15T09:34:36.099Z,1.30
2018-12-15T09:37:04.324Z,1.20
2018-12-15T09:39:33.562Z,1.20
2018-12-15T09:42:01.755Z,1.20
2018-12-15T09:44:29.847Z,1.20
2018-12-15T09:46:57.919Z,1.20
2018-12-15T09:49:26.007Z,1.20
2018-12-15T09:51:54.159Z,1.30
2018-12-15T09:54:22.227Z,1.20
2018-12-15T09:56:50.494Z,1.30
2018-12-15T09:59:18.632Z,1.30
2018-12-15T10:01:46.906Z,1.30
2018-12-15T10:04:14.998Z,1.30
2018-12-15T10:06:43.146Z,1.20
2018-12-15T10:09:11.239Z,1.30
2018-12-15T10:11:39.262Z,1.30
2018-12-15T10:14:08.357Z,1.20
2018-12-15T10:16:36.494Z,1.20
2018-12-15T10:19:04.573Z,1.30
2018-12-15T10:21:32.659Z,1.30
2018-12-15T10:24:01.046Z,1.20
2018-12-15T10:26:29.138Z,1.20
2018-12-15T10:28:57.352Z,1.20
2018-12-15T10:31:31.018Z,1.20
2018-12-15T10:33:59.130Z,1.20
2018-12-15T10:36:27.258Z,1.20
2018-12-15T10:38:57.399Z,1.20
2018-12-15T10:41:25.496Z,1.30
2018-12-15T10:43:53.583Z,1.30
2018-12-15T10:46:21.658Z,1.30
2018-12-15T10:48:49.887Z,1.30
2018-12-15T10:51:21.651Z,1.30
2018-12-15T10:53:49.756Z,1.30
2018-12-15T10:56:17.847Z,1.20
2018-12-15T10:58:45.973Z,1.30
2018-12-15T11:01:19.543Z,1.30
2018-12-15T11:03:47.673Z,1.30
2018-12-15T11:06:15.847Z,1.30
2018-12-15T11:08:44.099Z,1.30
2018-12-15T11:11:12.224Z,1.40
2018-12-15T11:13:40.323Z,1.30
2018-12-15T11:16:08.411Z,1.30
2018-12-15T11:18:36.486Z,1.30
2018-12-15T11:21:04.666Z,1.30
2018-12-15T11:23:32.809Z,1.30
2018-12-15T11:26:01.007Z,1.40
2018-12-15T11:28:29.066Z,1.40
2018-12-15T11:30:57.278Z,1.30
2018-12-15T11:33:25.371Z,1.30
2018-12-15T11:35:53.472Z,1.30
2018-12-15T11:38:21.557Z,1.30
2018-12-15T11:40:49.669Z,1.30
2018-12-15T11:43:18.587Z,1.30
2018-12-15T11:45:46.856Z,1.40
2018-12-15T11:48:15.070Z,1.30
2018-12-15T11:50:43.139Z,1.20
2018-12-15T11:53:11.158Z,1.40
2018-12-15T11:55:39.282Z,1.50
2018-12-15T11:58:11.447Z,1.20
2018-12-15T12:00:39.591Z,1.30
2018-12-15T12:03:07.738Z,1.30
2018-12-15T12:05:35.867Z,1.20
2018-12-15T12:08:03.935Z,1.30
2018-12-15T12:10:32.058Z,1.30
2018-12-15T12:13:00.136Z,1.30
2018-12-15T12:15:28.215Z,1.30
2018-12-15T12:17:56.291Z,1.20
2018-12-15T12:20:24.410Z,1.20
2018-12-15T12:22:52.497Z,1.20
2018-12-15T12:25:20.611Z,1.30
2018-12-15T12:27:48.678Z,1.30
2018-12-15T12:30:16.764Z,1.20
2018-12-15T12:32:44.910Z,1.20
2018-12-15T12:35:13.030Z,1.10
2018-12-15T12:37:41.178Z,1.10
2018-12-15T12:40:09.372Z,1.10
2018-12-15T12:42:37.514Z,1.10
2018-12-15T12:45:05.902Z,1.10
2018-12-15T12:47:34.024Z,1.10
2018-12-15T12:50:02.206Z,1.20
2018-12-15T12:52:30.303Z,1.20
2018-12-15T12:54:58.426Z,1.20
2018-12-15T12:57:26.518Z,1.10
2018-12-15T12:59:54.602Z,1.10
2018-12-15T13:02:23.738Z,1.10
2018-12-15T13:04:51.822Z,1.00
2018-12-15T13:07:19.916Z,1.00
2018-12-15T13:09:48.035Z,1.00
2018-12-15T13:12:16.130Z,1.00
2018-12-15T13:14:44.526Z,1.10
2018-12-15T13:17:12.684Z,1.10
2018-12-15T13:19:40.788Z,1.10
2018-12-15T13:22:08.902Z,1.10
2018-12-15T13:24:37.001Z,1.10
2018-12-15T13:27:05.100Z,1.00
2018-12-15T13:29:33.167Z,1.10
2018-12-15T13:32:01.315Z,1.00
2018-12-15T13:34:29.402Z,1.00
2018-12-15T13:36:57.464Z,1.00
2018-12-15T13:39:25.550Z,1.00
2018-12-15T13:41:53.969Z,1.10
2018-12-15T13:44:22.064Z,1.00
2018-12-15T13:46:50.526Z,1.00
2018-12-15T13:49:18.622Z,1.00
2018-12-15T13:51:46.703Z,1.00
2018-12-15T13:54:15.070Z,1.00
2018-12-15T13:56:43.156Z,0.90
2018-12-15T13:59:11.291Z,0.90
2018-12-15T14:01:39.506Z,0.90
2018-12-15T14:04:07.571Z,0.90
2018-12-15T14:06:35.659Z,0.90
2018-12-15T14:09:06.747Z,1.00
2018-12-15T14:11:34.852Z,0.90
2018-12-15T14:14:03.035Z,0.90
2018-12-15T14:16:31.131Z,0.90
2018-12-15T14:18:59.191Z,0.90
2018-12-15T14:21:27.285Z,0.80
2018-12-15T14:23:55.343Z,0.90
2018-12-15T14:26:23.430Z,0.90
2018-12-15T14:28:51.474Z,0.80
2018-12-15T14:31:19.640Z,0.90
2018-12-15T14:33:47.828Z,0.80
2018-12-15T14:36:16.003Z,0.90
2018-12-15T14:38:44.071Z,0.90
2018-12-15T14:41:12.173Z,0.80
2018-12-15T14:43:40.259Z,0.80
2018-12-15T14:46:08.404Z,0.80
2018-12-15T14:48:36.462Z,0.90
2018-12-15T14:51:04.585Z,0.80
2018-12-15T14:53:32.705Z,0.80
2018-12-15T14:56:00.967Z,0.80
2018-12-15T14:58:29.114Z,0.80
2018-12-15T15:00:57.192Z,0.80
2018-12-15T15:03:25.246Z,0.70
2018-12-15T15:05:53.350Z,0.80
2018-12-15T15:08:21.433Z,0.80
2018-12-15T15:10:49.633Z,0.80
2018-12-15T15:13:17.787Z,0.80
2018-12-15T15:15:45.855Z,0.80
2018-12-15T15:18:13.900Z,0.70
2018-12-15T15:20:41.996Z,0.70
2018-12-15T15:23:10.060Z,0.70
2018-12-15T15:25:38.306Z,0.70
2018-12-15T15:28:06.353Z,0.80
2018-12-15T15:30:34.476Z,0.80
2018-12-15T15:33:02.498Z,0.80
2018-12-15T15:35:37.207Z,0.80
2018-12-15T15:38:05.275Z,0.80
2018-12-15T15:40:33.380Z,0.70
2018-12-15T15:43:01.524Z,0.80
2018-12-15T15:45:29.674Z,0.80
2018-12-15T15:47:57.819Z,0.80
2018-12-15T15:50:25.963Z,0.80
2018-12-15T15:52:54.039Z,0.80
2018-12-15T15:55:22.106Z,0.80
2018-12-15T15:57:50.213Z,0.80
2018-12-15T16:00:18.292Z,0.80
2018-12-15T16:02:46.382Z,0.70
2018-12-15T16:05:14.456Z,0.70
2018-12-15T16:07:42.882Z,0.70
2018-12-15T16:10:11.366Z,0.70
2018-12-15T16:12:39.511Z,0.80
2018-12-15T16:15:08.893Z,0.70
2018-12-15T16:17:36.989Z,0.70
2018-12-15T16:20:06.881Z,0.70
2018-12-15T16:22:35.045Z,0.70
2018-12-15T16:25:03.256Z,0.80
2018-12-15T16:27:31.342Z,0.80
2018-12-15T16:29:59.374Z,0.80
2018-12-15T16:32:27.486Z,0.70
2018-12-15T16:34:55.545Z,0.70
2018-12-15T16:37:23.751Z,0.70
2018-12-15T16:39:51.818Z,0.70
2018-12-15T16:42:19.874Z,0.70
2018-12-15T16:44:47.939Z,0.70
2018-12-15T16:47:16.018Z,0.80
2018-12-15T16:49:44.066Z,0.80
2018-12-15T16:52:12.214Z,0.80
2018-12-15T16:54:40.635Z,0.80
2018-12-15T16:57:08.714Z,0.80
2018-12-15T16:59:36.747Z,0.90
2018-12-15T17:02:04.834Z,0.80
2018-12-15T17:04:32.972Z,0.80
2018-12-15T17:07:01.093Z,0.80
2018-12-15T17:09:29.230Z,0.70
2018-12-15T17:11:57.328Z,0.70
2018-12-15T17:14:25.391Z,0.80
2018-12-15T17:16:53.473Z,0.70
2018-12-15T17:19:21.519Z,0.70
2018-12-15T17:21:49.619Z,0.60
2018-12-15T17:24:18.347Z,0.60
2018-12-15T17:26:46.398Z,0.60
2018-12-15T17:29:14.434Z,0.70
2018-12-15T17:31:42.519Z,0.70
2018-12-15T17:34:10.643Z,0.70
2018-12-15T17:36:39.065Z,0.70
2018-12-15T17:39:07.690Z,0.60
2018-12-15T17:41:35.803Z,0.60
2018-12-15T17:44:03.873Z,0.60
2018-12-15T17:46:31.973Z,0.60
2018-12-15T17:49:00.061Z,0.60
2018-12-15T17:51:28.235Z,0.60
2018-12-15T17:53:56.279Z,0.60
2018-12-15T17:56:24.380Z,0.50
2018-12-15T17:58:52.427Z,0.60
2018-12-15T18:01:20.520Z,0.60
2018-12-15T18:03:48.767Z,0.60
2018-12-15T18:06:16.862Z,0.50
2018-12-15T18:08:44.908Z,0.50
2018-12-15T18:11:12.982Z,0.50
2018-12-15T18:13:41.127Z,0.50
2018-12-15T18:16:09.250Z,0.50
2018-12-15T18:18:37.615Z,0.50
2018-12-15T18:21:09.795Z,0.60
2018-12-15T18:23:35.776Z,0.50
2018-12-15T18:26:03.874Z,0.60
2018-12-15T18:28:31.913Z,0.60
2018-12-15T18:30:59.962Z,0.60
2018-12-15T18:33:28.031Z,0.50
2018-12-15T18:35:56.134Z,0.50
2018-12-15T18:38:24.256Z,0.60
2018-12-15T18:40:52.319Z,0.50
2018-12-15T18:43:20.536Z,0.50
2018-12-15T18:45:48.686Z,0.50
2018-12-15T18:48:16.743Z,0.50
2018-12-15T18:50:44.846Z,0.50
2018-12-15T18:53:12.915Z,0.50
2018-12-15T18:55:40.939Z,0.50
2018-12-15T18:58:11.796Z,0.50
2018-12-15T19:00:39.946Z,0.50
2018-12-15T19:03:08.138Z,0.50
2018-12-15T19:05:36.203Z,0.60
2018-12-15T19:08:04.305Z,0.60
2018-12-15T19:10:32.387Z,0.60
2018-12-15T19:13:00.452Z,0.50
2018-12-15T19:15:28.683Z,0.50
2018-12-15T19:17:56.775Z,0.50
2018-12-15T19:20:24.871Z,0.50
2018-12-15T19:22:52.974Z,0.50
2018-12-15T19:25:21.039Z,0.50
2018-12-15T19:27:49.135Z,0.50
2018-12-15T19:30:17.217Z,0.50
2018-12-15T19:32:45.320Z,0.50
2018-12-15T19:35:13.428Z,0.50
2018-12-15T19:37:41.578Z,0.50
2018-12-15T19:40:09.718Z,0.50
2018-12-15T19:42:37.903Z,0.50
2018-12-15T19:45:07.189Z,0.50
2018-12-15T19:47:35.623Z,0.50
2018-12-15T19:50:03.952Z,0.50
2018-12-15T19:52:32.127Z,0.50
2018-12-15T19:55:00.179Z,0.50
2018-12-15T19:57:28.271Z,0.50
2018-12-15T19:59:56.407Z,0.50
2018-12-15T20:02:24.500Z,0.50
2018-12-15T20:04:52.495Z,0.50
2018-12-15T20:07:20.659Z,0.50
2018-12-15T20:09:48.726Z,0.50
2018-12-15T20:12:16.818Z,0.50
2018-12-15T20:14:44.891Z,0.60
2018-12-15T20:17:12.962Z,0.60
2018-12-15T20:19:41.063Z,0.50
2018-12-15T20:22:09.164Z,0.50
2018-12-15T20:24:37.310Z,0.50
2018-12-15T20:27:05.421Z,0.50
2018-12-15T20:29:33.578Z,0.50
2018-12-15T20:32:01.672Z,0.50
2018-12-15T20:34:29.807Z,0.50
2018-12-15T20:36:57.966Z,0.50
2018-12-15T20:39:26.047Z,0.50
2018-12-15T20:41:54.158Z,0.50
2018-12-15T20:44:22.240Z,0.50
2018-12-15T20:46:50.447Z,0.40
2018-12-15T20:49:18.520Z,0.50
2018-12-15T20:51:46.612Z,0.50
2018-12-15T20:54:18.761Z,0.40
2018-12-15T20:56:46.949Z,0.40
2018-12-15T20:59:15.074Z,0.50
2018-12-15T21:01:43.146Z,0.50
2018-12-15T21:04:11.251Z,0.50
2018-12-15T21:06:39.496Z,0.50
2018-12-15T21:09:08.172Z,0.50
2018-12-15T21:11:36.345Z,0.50
2018-12-15T21:14:04.459Z,0.50
2018-12-15T21:16:32.533Z,0.50
2018-12-15T21:19:00.629Z,0.50
2018-12-15T21:21:28.682Z,0.40
2018-12-15T21:23:56.777Z,0.40
2018-12-15T21:26:24.855Z,0.40
2018-12-15T21:28:52.952Z,0.40
2018-12-15T21:31:21.155Z,0.40
2018-12-15T21:33:49.251Z,0.40
2018-12-15T21:36:17.742Z,0.40
2018-12-15T21:38:45.839Z,0.40
2018-12-15T21:41:13.898Z,0.40
2018-12-15T21:43:41.926Z,0.30
2018-12-15T21:46:09.954Z,0.30
2018-12-15T21:48:38.042Z,0.30
2018-12-15T21:51:06.127Z,0.30
2018-12-15T21:53:34.218Z,0.30
2018-12-15T21:56:02.264Z,0.30
2018-12-15T21:58:30.370Z,0.30
2018-12-15T22:00:58.406Z,0.20
2018-12-15T22:03:26.526Z,0.10
2018-12-15T22:05:54.631Z,0.20
2018-12-15T22:08:22.746Z,0.20
2018-12-15T22:10:50.969Z,0.20
2018-12-15T22:13:19.172Z,0.20
2018-12-15T22:15:47.243Z,0.20
2018-12-15T22:18:15.374Z,0.20
2018-12-15T22:20:43.707Z,0.20
2018-12-15T22:23:11.794Z,0.10
2018-12-15T22:25:39.843Z,0.10
2018-12-15T22:28:07.961Z,0.00
2018-12-15T22:30:36.078Z,0.00
2018-12-15T22:33:04.207Z,0.00
2018-12-15T22:35:32.289Z,0.00
2018-12-15T22:38:00.315Z,-0.10
2018-12-15T22:40:28.397Z,-0.10
2018-12-15T22:42:56.495Z,-0.20
2018-12-15T22:45:24.749Z,-0.20
2018-12-15T22:47:52.832Z,-0.20
2018-12-15T22:50:20.983Z,-0.20
2018-12-15T22:52:49.151Z,-0.20
2018-12-15T22:55:17.246Z,-0.20
2018-12-15T22:57:45.513Z,-0.30
2018-12-15T23:00:13.888Z,-0.30
2018-12-15T23:02:42.107Z,-0.30
2018-12-15T23:05:10.305Z,-0.30
2018-12-15T23:07:38.367Z,-0.30
2018-12-15T23:10:07.449Z,-0.30
2018-12-15T23:12:35.518Z,-0.40
2018-12-15T23:15:04.106Z,-0.40
2018-12-15T23:17:32.082Z,-0.40
2018-12-15T23:20:00.263Z,-0.40
2018-12-15T23:22:28.307Z,-0.50
2018-12-15T23:24:56.427Z,-0.50
2018-12-15T23:27:24.482Z,-0.50
2018-12-15T23:29:52.602Z,-0.50
2018-12-15T23:32:20.695Z,-0.60
2018-12-15T23:34:48.814Z,-0.60
2018-12-15T23:37:16.899Z,-0.60
2018-12-15T23:39:45.077Z,-0.60
2018-12-15T23:42:14.082Z,-0.60
2018-12-15T23:44:42.156Z,-0.60
2018-12-15T23:47:10.239Z,-0.60
2018-12-15T23:49:38.384Z,-0.60
2018-12-15T23:52:06.478Z,-0.60
2018-12-15T23:54:34.566Z,-0.50
2018-12-15T23:57:02.802Z,-0.60
2018-12-15T23:59:30.941Z,-0.60
